Time;durP1;ratioP1;P1;durP2;ratioP2;P2;SDS_P1;SDS_P2;PMS_P1;PMS_P2;Temp;Humidity;BMP_temperature;BMP_pressure;BME280_temperature;BME280_humidity;BME280_pressure;Samples;Min_cycle;Max_cycle;Signal;HPM_P1;HPM_P2
2023/01/04 00:00:04;;;;;;;;;;;11.10;99.90;;;;;;5035655;28;20359;-73
2023/01/04 00:02:30;;;;;;;;;;;11.20;99.90;;;;;;5036782;28;20284;-77
2023/01/04 00:04:55;;;;;;;;;;;11.30;99.90;;;;;;5039638;28;19916;-74
2023/01/04 00:07:21;;;;;;;;;;;11.50;99.90;;;;;;5044870;28;19998;-74
2023/01/04 00:09:46;;;;;;;;;;;11.60;99.90;;;;;;5042362;28;19958;-73
2023/01/04 00:12:12;;;;;;;;;;;11.60;99.90;;;;;;5040632;28;19905;-74
2023/01/04 00:14:37;;;;;;;;;;;11.70;99.90;;;;;;5040875;28;20626;-73
2023/01/04 00:17:03;;;;;;;;;;;11.80;99.90;;;;;;5041997;28;19974;-79
2023/01/04 00:19:28;;;;;;;;;;;11.90;99.90;;;;;;5040218;28;19912;-77
2023/01/04 00:21:54;;;;;;;;;;;12.00;99.90;;;;;;5049237;28;20479;-77
2023/01/04 00:24:19;;;;;;;;;;;12.20;99.90;;;;;;5045948;28;20050;-72
2023/01/04 00:26:45;;;;;;;;;;;13.10;99.90;;;;;;5048193;28;19908;-76
2023/01/04 00:29:12;;;;;;;;;;;13.10;99.90;;;;;;5037696;28;19913;-74
2023/01/04 00:31:37;;;;;;;;;;;13.10;99.90;;;;;;5041983;28;19913;-77
2023/01/04 00:34:04;;;;;;;;;;;13.40;99.90;;;;;;5036065;28;19917;-76
2023/01/04 00:36:29;;;;;;;;;;;13.30;99.90;;;;;;5038860;28;19909;-72
2023/01/04 00:39:13;;;;;;;;;;;13.30;99.90;;;;;;5036124;28;20341;-74
2023/01/04 00:41:40;;;;;;;;;;;13.50;99.90;;;;;;5035412;28;19975;-74
2023/01/04 00:44:06;;;;;;;;;;;13.50;99.90;;;;;;5044490;28;19940;-76
2023/01/04 00:46:32;;;;;;;;;;;13.60;99.90;;;;;;5036810;28;19941;-76
2023/01/04 00:48:57;;;;;;;;;;;13.60;99.90;;;;;;5042279;28;19924;-78
2023/01/04 00:51:23;;;;;;;;;;;13.70;99.90;;;;;;5041673;28;19909;-73
2023/01/04 00:53:48;;;;;;;;;;;13.90;99.90;;;;;;5039973;28;19921;-71
2023/01/04 00:56:14;;;;;;;;;;;13.90;99.90;;;;;;5041297;28;20279;-74
2023/01/04 00:58:39;;;;;;;;;;;13.90;99.90;;;;;;5031066;28;19936;-75
2023/01/04 01:01:05;;;;;;;;;;;14.10;99.90;;;;;;5035217;28;20259;-72
2023/01/04 01:03:31;;;;;;;;;;;14.20;99.90;;;;;;5045418;28;19920;-75
2023/01/04 01:06:00;;;;;;;;;;;14.20;99.90;;;;;;5042762;28;20289;-74
2023/01/04 01:08:26;;;;;;;;;;;14.30;99.90;;;;;;5044289;28;19947;-77
2023/01/04 01:10:52;;;;;;;;;;;14.30;99.90;;;;;;5040815;28;20426;-74
2023/01/04 01:13:18;;;;;;;;;;;14.30;99.90;;;;;;5054867;28;19990;-72
2023/01/04 01:15:43;;;;;;;;;;;14.30;99.90;;;;;;5038070;28;20376;-75
2023/01/04 01:18:09;;;;;;;;;;;14.50;99.90;;;;;;5044136;28;19947;-74
2023/01/04 01:20:34;;;;;;;;;;;14.50;99.90;;;;;;5032693;28;19917;-76
2023/01/04 01:23:00;;;;;;;;;;;14.60;99.90;;;;;;5037971;28;20318;-71
2023/01/04 01:25:25;;;;;;;;;;;14.70;99.90;;;;;;5036872;28;20391;-73
2023/01/04 01:27:51;;;;;;;;;;;14.80;99.90;;;;;;5041079;28;19909;-75
2023/01/04 01:30:16;;;;;;;;;;;14.80;99.90;;;;;;5048905;28;19916;-75
2023/01/04 01:32:42;;;;;;;;;;;14.80;99.90;;;;;;5052664;28;19919;-73
2023/01/04 01:35:07;;;;;;;;;;;15.00;99.90;;;;;;5041908;28;20437;-74
2023/01/04 01:37:33;;;;;;;;;;;14.90;99.90;;;;;;5037257;28;19913;-74
2023/01/04 01:39:58;;;;;;;;;;;15.00;99.90;;;;;;5069385;28;19913;-78
2023/01/04 01:42:24;;;;;;;;;;;15.10;99.90;;;;;;5071265;28;19959;-74
2023/01/04 01:45:10;;;;;;;;;;;15.40;99.90;;;;;;5066642;28;19909;-74
2023/01/04 01:47:56;;;;;;;;;;;15.30;99.90;;;;;;5051528;28;19931;-76
2023/01/04 01:50:25;;;;;;;;;;;15.40;99.90;;;;;;5065743;28;20016;-76
2023/01/04 01:52:50;;;;;;;;;;;15.50;99.90;;;;;;5061588;28;19908;-78
2023/01/04 01:55:16;;;;;;;;;;;15.60;99.90;;;;;;5067894;28;19919;-77
2023/01/04 01:57:42;;;;;;;;;;;15.70;99.90;;;;;;5053972;28;20315;-76
2023/01/04 02:00:10;;;;;;;;;;;15.70;99.90;;;;;;5059804;28;19897;-74
2023/01/04 02:02:36;;;;;;;;;;;15.80;99.90;;;;;;5054544;28;19916;-78
2023/01/04 02:05:02;;;;;;;;;;;15.90;99.90;;;;;;5050569;28;19980;-77
2023/01/04 02:07:27;;;;;;;;;;;15.90;99.90;;;;;;5048379;28;19995;-76
2023/01/04 02:09:54;;;;;;;;;;;15.90;99.90;;;;;;5049331;28;20008;-74
2023/01/04 02:12:19;;;;;;;;;;;16.10;99.90;;;;;;5050919;28;19909;-80
2023/01/04 02:14:47;;;;;;;;;;;16.00;99.90;;;;;;5059509;28;20034;-76
2023/01/04 02:17:12;;;;;;;;;;;16.10;99.90;;;;;;5055404;28;19944;-77
2023/01/04 02:19:56;;;;;;;;;;;16.20;99.90;;;;;;5050326;28;19909;-78
2023/01/04 02:22:36;;;;;;;;;;;16.20;99.90;;;;;;5046517;28;20653;-75
2023/01/04 02:25:17;;;;;;;;;;;16.20;99.90;;;;;;5036964;28;19962;-78
2023/01/04 02:27:54;;;;;;;;;;;16.10;99.90;;;;;;5043665;28;19920;-76
2023/01/04 02:30:38;;;;;;;;;;;16.10;99.90;;;;;;5040024;28;20400;-75
2023/01/04 02:33:03;;;;;;;;;;;16.10;99.90;;;;;;5033792;28;19949;-74
2023/01/04 02:35:29;;;;;;;;;;;16.10;99.90;;;;;;5035562;28;19951;-73
2023/01/04 02:38:00;;;;;;;;;;;16.20;99.90;;;;;;5037158;28;19973;-74
2023/01/04 02:40:28;;;;;;;;;;;16.10;99.90;;;;;;5036173;28;19917;-76
2023/01/04 02:45:49;;;;;;;;;;;16.10;99.90;;;;;;5039609;28;19959;-76
2023/01/04 02:50:59;;;;;;;;;;;15.90;99.90;;;;;;5050796;28;19920;-79
2023/01/04 02:53:32;;;;;;;;;;;16.10;99.90;;;;;;5049237;28;19912;-75
2023/01/04 02:56:07;;;;;;;;;;;16.00;99.90;;;;;;5044743;28;19912;-77
2023/01/04 02:58:48;;;;;;;;;;;16.00;99.90;;;;;;5040071;28;19917;-75
2023/01/04 03:07:24;;;;;;;;;;;16.20;99.90;;;;;;5003391;28;19914;-75
2023/01/04 03:09:53;;;;;;;;;;;16.20;99.90;;;;;;5035242;28;20336;-73
2023/01/04 03:12:32;;;;;;;;;;;16.30;99.90;;;;;;5034693;28;19923;-78
2023/01/04 03:15:03;;;;;;;;;;;16.40;99.90;;;;;;5036601;28;19927;-79
2023/01/04 03:17:34;;;;;;;;;;;16.40;99.90;;;;;;5029822;28;19909;-75
2023/01/04 03:20:00;;;;;;;;;;;16.40;99.90;;;;;;5035394;28;19999;-75
2023/01/04 03:36:31;;;;;;;;;;;16.60;99.90;;;;;;5038924;28;19996;-75
2023/01/04 03:50:40;;;;;;;;;;;16.50;99.90;;;;;;5048475;28;19926;-76
2023/01/04 03:53:06;;;;;;;;;;;16.70;99.90;;;;;;5047577;28;19913;-76
2023/01/04 03:55:33;;;;;;;;;;;16.70;99.90;;;;;;5049310;28;19939;-74
2023/01/04 03:57:58;;;;;;;;;;;16.70;99.90;;;;;;5042884;28;19920;-76
2023/01/04 04:00:24;;;;;;;;;;;16.60;99.90;;;;;;5049716;28;19909;-75
2023/01/04 04:02:49;;;;;;;;;;;16.60;99.90;;;;;;5045223;28;19920;-75
2023/01/04 04:10:47;;;;;;;;;;;16.70;99.90;;;;;;5038989;28;19974;-76
2023/01/04 04:13:13;;;;;;;;;;;16.60;99.90;;;;;;5040632;28;19909;-75
2023/01/04 04:15:38;;;;;;;;;;;16.70;99.90;;;;;;5038967;28;19909;-76
2023/01/04 04:18:04;;;;;;;;;;;16.70;99.90;;;;;;5030867;28;20586;-76
2023/01/04 04:20:30;;;;;;;;;;;16.70;99.90;;;;;;5048501;28;19931;-74
2023/01/04 04:22:55;;;;;;;;;;;16.70;99.90;;;;;;5036213;28;19909;-78
2023/01/04 04:25:20;;;;;;;;;;;16.70;99.90;;;;;;5041943;28;20007;-76
2023/01/04 04:27:46;;;;;;;;;;;16.70;99.90;;;;;;5046146;28;19932;-74
2023/01/04 04:30:12;;;;;;;;;;;16.80;99.90;;;;;;5048082;28;19916;-74
2023/01/04 04:32:37;;;;;;;;;;;16.70;99.90;;;;;;5041473;28;19913;-74
2023/01/04 04:35:03;;;;;;;;;;;16.70;99.90;;;;;;5033400;28;20287;-76
2023/01/04 04:37:30;;;;;;;;;;;16.80;99.90;;;;;;5045118;28;19960;-75
2023/01/04 04:39:59;;;;;;;;;;;16.90;99.90;;;;;;5047749;28;19920;-74
2023/01/04 04:42:25;;;;;;;;;;;16.90;99.90;;;;;;5039886;28;19961;-75
2023/01/04 04:44:50;;;;;;;;;;;16.90;99.90;;;;;;5040404;28;19948;-74
2023/01/04 04:47:16;;;;;;;;;;;16.90;99.90;;;;;;5042487;28;20383;-75
2023/01/04 04:49:41;;;;;;;;;;;17.00;99.90;;;;;;5050089;28;19912;-75
2023/01/04 04:52:07;;;;;;;;;;;16.90;99.90;;;;;;5039416;28;19935;-74
2023/01/04 04:54:33;;;;;;;;;;;17.00;99.90;;;;;;5040988;28;19975;-76
2023/01/04 04:56:58;;;;;;;;;;;17.00;99.90;;;;;;5035236;28;20550;-76
2023/01/04 04:59:24;;;;;;;;;;;17.10;99.90;;;;;;5046774;28;19986;-73
2023/01/04 05:01:49;;;;;;;;;;;17.30;99.90;;;;;;5043142;28;19920;-79
2023/01/04 05:04:15;;;;;;;;;;;17.40;99.90;;;;;;5045317;28;19920;-77
2023/01/04 05:06:42;;;;;;;;;;;17.30;99.90;;;;;;5042797;28;20011;-76
2023/01/04 05:09:07;;;;;;;;;;;17.40;99.90;;;;;;5038514;28;19917;-74
2023/01/04 05:14:17;;;;;;;;;;;17.60;99.90;;;;;;5035225;28;20897;-74
2023/01/04 05:16:44;;;;;;;;;;;17.60;99.90;;;;;;5036396;28;21556;-75
2023/01/04 05:19:10;;;;;;;;;;;17.60;99.90;;;;;;5046191;28;20427;-77
2023/01/04 05:21:35;;;;;;;;;;;17.70;99.90;;;;;;5041424;28;19919;-75
2023/01/04 05:24:01;;;;;;;;;;;17.80;99.90;;;;;;5043081;28;20311;-74
2023/01/04 05:26:26;;;;;;;;;;;17.90;99.90;;;;;;5045114;28;19995;-76
2023/01/04 05:28:51;;;;;;;;;;;17.90;99.90;;;;;;5040841;28;19916;-74
2023/01/04 05:31:17;;;;;;;;;;;17.90;99.90;;;;;;5043244;28;20469;-75
2023/01/04 05:33:42;;;;;;;;;;;18.20;99.90;;;;;;5036246;28;20012;-77
2023/01/04 05:36:08;;;;;;;;;;;18.20;99.90;;;;;;5044998;28;19952;-76
2023/01/04 05:38:33;;;;;;;;;;;18.30;99.90;;;;;;5044433;28;19908;-74
2023/01/04 05:40:59;;;;;;;;;;;18.30;99.90;;;;;;5046187;28;19909;-77
2023/01/04 05:43:24;;;;;;;;;;;18.40;99.90;;;;;;5044322;28;19988;-76
2023/01/04 05:45:54;;;;;;;;;;;18.30;99.90;;;;;;5047909;28;19921;-73
2023/01/04 05:48:20;;;;;;;;;;;18.60;99.90;;;;;;5042866;28;19917;-73
2023/01/04 05:50:46;;;;;;;;;;;18.60;99.90;;;;;;5047639;28;19962;-77
2023/01/04 05:53:12;;;;;;;;;;;18.60;99.90;;;;;;5043511;28;19920;-74
2023/01/04 05:55:38;;;;;;;;;;;18.60;99.90;;;;;;5047291;28;19971;-75
2023/01/04 05:58:03;;;;;;;;;;;18.70;99.90;;;;;;5045815;28;20386;-78
2023/01/04 06:00:28;;;;;;;;;;;18.70;99.90;;;;;;5042595;28;19915;-75
2023/01/04 06:02:55;;;;;;;;;;;18.60;99.90;;;;;;5047718;28;19913;-75
2023/01/04 06:05:22;;;;;;;;;;;18.70;99.90;;;;;;5032914;28;19971;-73
2023/01/04 06:07:47;;;;;;;;;;;18.80;99.90;;;;;;5044035;28;19924;-74
2023/01/04 06:10:13;;;;;;;;;;;18.70;99.90;;;;;;5052025;28;19921;-75
2023/01/04 06:12:39;;;;;;;;;;;18.70;99.90;;;;;;5048697;28;20433;-77
2023/01/04 06:15:05;;;;;;;;;;;18.80;99.90;;;;;;5047850;28;20290;-75
2023/01/04 06:17:30;;;;;;;;;;;18.70;99.90;;;;;;5045454;28;19913;-77
2023/01/04 06:19:56;;;;;;;;;;;18.70;99.90;;;;;;5053077;28;19982;-76
2023/01/04 06:22:21;;;;;;;;;;;18.70;99.90;;;;;;5050051;28;19916;-74
2023/01/04 06:24:47;;;;;;;;;;;18.60;99.90;;;;;;5044804;28;20434;-75
2023/01/04 06:27:12;;;;;;;;;;;18.70;99.90;;;;;;5053432;28;19917;-75
2023/01/04 06:29:38;;;;;;;;;;;18.50;99.90;;;;;;5056802;28;19930;-78
2023/01/04 06:32:03;;;;;;;;;;;18.60;99.90;;;;;;5055065;28;19916;-76
2023/01/04 06:34:29;;;;;;;;;;;18.40;99.90;;;;;;5052146;28;19956;-76
2023/01/04 06:36:54;;;;;;;;;;;18.40;99.90;;;;;;5058919;28;19986;-80
2023/01/04 06:39:20;;;;;;;;;;;18.30;99.90;;;;;;5052196;28;19968;-74
2023/01/04 06:41:45;;;;;;;;;;;18.40;99.90;;;;;;5051702;28;19916;-76
2023/01/04 06:44:11;;;;;;;;;;;18.30;99.90;;;;;;5040975;28;20453;-76
2023/01/04 06:46:36;;;;;;;;;;;18.20;99.90;;;;;;5044033;28;19912;-72
2023/01/04 06:49:02;;;;;;;;;;;18.20;99.90;;;;;;5049484;28;20589;-73
2023/01/04 06:51:27;;;;;;;;;;;18.10;99.90;;;;;;5050038;28;19932;-75
2023/01/04 06:53:53;;;;;;;;;;;18.00;99.90;;;;;;5046058;28;20305;-73
2023/01/04 06:56:18;;;;;;;;;;;17.90;99.90;;;;;;5045819;28;19913;-74
2023/01/04 06:58:44;;;;;;;;;;;17.80;99.90;;;;;;5037788;28;19995;-74
2023/01/04 07:01:09;;;;;;;;;;;17.70;99.90;;;;;;5037471;28;19909;-76
2023/01/04 07:03:35;;;;;;;;;;;17.80;99.90;;;;;;5037889;28;19916;-75
2023/01/04 07:06:05;;;;;;;;;;;17.70;99.90;;;;;;5036566;28;20360;-75
2023/01/04 07:08:30;;;;;;;;;;;17.60;99.90;;;;;;5040891;28;19995;-76
2023/01/04 07:10:56;;;;;;;;;;;17.50;99.90;;;;;;5036351;28;20037;-77
2023/01/04 07:13:21;;;;;;;;;;;17.50;99.90;;;;;;5038982;28;19913;-75
2023/01/04 07:15:47;;;;;;;;;;;17.30;99.90;;;;;;5048652;28;19962;-77
2023/01/04 07:18:12;;;;;;;;;;;17.20;99.90;;;;;;5032544;28;19919;-74
2023/01/04 07:20:38;;;;;;;;;;;17.20;99.90;;;;;;5051996;28;19909;-73
2023/01/04 07:23:04;;;;;;;;;;;17.10;99.90;;;;;;5045124;28;19978;-75
2023/01/04 07:25:30;;;;;;;;;;;17.10;99.90;;;;;;5044268;28;19919;-76
2023/01/04 07:27:55;;;;;;;;;;;17.00;99.90;;;;;;5035938;28;19909;-74
2023/01/04 07:30:21;;;;;;;;;;;17.00;99.90;;;;;;5048723;28;19947;-76
2023/01/04 07:32:47;;;;;;;;;;;17.00;99.90;;;;;;5037729;28;20458;-72
2023/01/04 07:35:13;;;;;;;;;;;17.00;99.90;;;;;;5049788;28;19972;-78
2023/01/04 07:37:38;;;;;;;;;;;17.00;99.90;;;;;;5035038;28;20343;-77
2023/01/04 07:40:04;;;;;;;;;;;16.90;99.90;;;;;;5054367;28;19939;-76
2023/01/04 07:42:30;;;;;;;;;;;16.90;99.90;;;;;;5050832;28;19944;-75
2023/01/04 07:44:55;;;;;;;;;;;17.00;99.90;;;;;;5054346;28;19909;-75
2023/01/04 07:47:21;;;;;;;;;;;16.90;99.90;;;;;;5050439;28;19924;-76
2023/01/04 07:49:48;;;;;;;;;;;17.00;99.90;;;;;;5050102;28;20126;-73
2023/01/04 07:52:14;;;;;;;;;;;17.10;99.90;;;;;;5045632;28;20007;-76
2023/01/04 07:54:40;;;;;;;;;;;17.10;99.90;;;;;;5042863;28;20390;-74
2023/01/04 07:57:05;;;;;;;;;;;17.10;99.90;;;;;;5046631;28;20371;-75
2023/01/04 07:59:31;;;;;;;;;;;17.40;99.90;;;;;;5045045;28;19952;-74
2023/01/04 08:01:56;;;;;;;;;;;17.40;99.90;;;;;;5037938;28;20430;-73
2023/01/04 08:04:22;;;;;;;;;;;17.60;99.90;;;;;;5044456;28;19995;-75
2023/01/04 08:06:48;;;;;;;;;;;17.80;99.90;;;;;;5042477;28;19955;-77
2023/01/04 08:09:14;;;;;;;;;;;17.90;99.90;;;;;;5041635;28;19920;-75
2023/01/04 08:11:40;;;;;;;;;;;18.10;99.90;;;;;;5040507;28;19940;-71
2023/01/04 08:14:05;;;;;;;;;;;18.40;99.90;;;;;;5046539;28;19915;-75
2023/01/04 08:16:32;;;;;;;;;;;18.40;99.90;;;;;;5046091;28;19916;-75
2023/01/04 08:18:59;;;;;;;;;;;18.60;99.90;;;;;;5052903;28;19939;-77
2023/01/04 08:21:26;;;;;;;;;;;18.60;99.90;;;;;;5054831;28;19912;-78
2023/01/04 08:23:52;;;;;;;;;;;18.90;99.90;;;;;;5052039;28;19909;-76
2023/01/04 08:26:17;;;;;;;;;;;18.80;99.90;;;;;;5045833;28;19962;-77
2023/01/04 08:28:43;;;;;;;;;;;19.00;99.90;;;;;;5045136;28;19913;-74
2023/01/04 08:31:20;;;;;;;;;;;19.20;99.90;;;;;;5045647;28;19917;-74
2023/01/04 08:33:45;;;;;;;;;;;19.30;99.90;;;;;;5032473;28;20402;-74
2023/01/04 08:36:15;;;;;;;;;;;19.50;99.90;;;;;;5041658;28;19916;-77
2023/01/04 08:38:40;;;;;;;;;;;19.70;99.90;;;;;;5042221;28;19908;-75
2023/01/04 08:41:06;;;;;;;;;;;19.60;99.90;;;;;;5037667;28;19928;-75
2023/01/04 08:43:32;;;;;;;;;;;19.60;99.90;;;;;;5038353;28;19952;-74
2023/01/04 08:45:57;;;;;;;;;;;20.00;99.90;;;;;;5041085;28;19952;-78
2023/01/04 08:48:23;;;;;;;;;;;20.10;99.90;;;;;;5041565;28;19919;-76
2023/01/04 08:50:48;;;;;;;;;;;20.10;99.90;;;;;;5029329;28;20230;-77
2023/01/04 08:53:14;;;;;;;;;;;20.30;99.90;;;;;;5039917;28;19916;-77
2023/01/04 08:55:39;;;;;;;;;;;20.40;99.90;;;;;;5041816;28;20640;-76
2023/01/04 08:58:06;;;;;;;;;;;20.30;99.90;;;;;;5041613;28;20437;-71
2023/01/04 09:00:31;;;;;;;;;;;20.40;99.90;;;;;;5041551;28;19908;-74
2023/01/04 09:02:57;;;;;;;;;;;20.30;99.90;;;;;;5042149;28;20325;-75
2023/01/04 09:05:24;;;;;;;;;;;20.50;99.90;;;;;;5045259;28;19940;-74
2023/01/04 09:07:50;;;;;;;;;;;20.50;99.90;;;;;;5043657;28;20007;-76
2023/01/04 09:10:16;;;;;;;;;;;20.60;99.90;;;;;;5043133;28;20005;-72
2023/01/04 09:12:41;;;;;;;;;;;20.50;99.90;;;;;;5027197;28;19909;-73
2023/01/04 09:15:07;;;;;;;;;;;20.70;99.90;;;;;;5044818;28;19963;-74
2023/01/04 09:17:33;;;;;;;;;;;20.80;99.90;;;;;;5044756;28;19920;-72
2023/01/04 09:19:58;;;;;;;;;;;20.90;99.90;;;;;;5043467;28;19921;-76
2023/01/04 09:22:24;;;;;;;;;;;20.70;99.90;;;;;;5046009;28;19999;-75
2023/01/04 09:24:49;;;;;;;;;;;21.00;99.90;;;;;;5044860;28;19909;-74
2023/01/04 09:27:15;;;;;;;;;;;20.90;99.90;;;;;;5046397;28;19909;-72
2023/01/04 09:29:40;;;;;;;;;;;20.90;99.90;;;;;;5044834;28;19916;-75
2023/01/04 09:32:06;;;;;;;;;;;20.90;99.90;;;;;;5040582;28;19913;-75
2023/01/04 09:34:31;;;;;;;;;;;21.10;99.90;;;;;;5060844;28;19985;-71
2023/01/04 09:36:57;;;;;;;;;;;21.30;99.90;;;;;;5043927;28;19913;-73
2023/01/04 09:39:25;;;;;;;;;;;21.00;99.90;;;;;;5038934;28;19917;-74
2023/01/04 09:41:54;;;;;;;;;;;21.00;99.90;;;;;;5044080;28;19928;-75
2023/01/04 09:44:22;;;;;;;;;;;21.20;99.90;;;;;;5032181;28;19919;-73
2023/01/04 09:46:53;;;;;;;;;;;21.30;99.90;;;;;;5031331;28;19931;-74
2023/01/04 09:49:22;;;;;;;;;;;21.40;99.90;;;;;;5027963;28;20007;-74
2023/01/04 09:51:54;;;;;;;;;;;21.50;99.90;;;;;;5040671;28;19913;-74
2023/01/04 09:54:21;;;;;;;;;;;21.40;99.90;;;;;;5042437;28;19935;-73
2023/01/04 09:56:50;;;;;;;;;;;21.60;99.90;;;;;;5038451;28;19909;-72
2023/01/04 09:59:16;;;;;;;;;;;21.30;99.90;;;;;;5030654;28;19962;-73
2023/01/04 10:01:45;;;;;;;;;;;21.60;99.90;;;;;;5034192;28;19908;-71
2023/01/04 10:04:22;;;;;;;;;;;21.70;99.90;;;;;;5036877;28;20050;-73
2023/01/04 10:06:48;;;;;;;;;;;21.60;99.90;;;;;;5034322;28;19916;-72
2023/01/04 10:09:15;;;;;;;;;;;21.40;99.90;;;;;;5045962;28;19913;-73
2023/01/04 10:12:00;;;;;;;;;;;21.70;99.90;;;;;;5041950;28;19913;-74
2023/01/04 10:14:31;;;;;;;;;;;21.50;99.90;;;;;;5033706;28;20396;-74
2023/01/04 10:17:00;;;;;;;;;;;21.50;99.90;;;;;;5040346;28;20394;-71
2023/01/04 10:19:25;;;;;;;;;;;21.40;99.90;;;;;;5033046;28;19913;-74
2023/01/04 10:21:54;;;;;;;;;;;21.50;99.90;;;;;;5041763;28;19912;-72
2023/01/04 10:24:19;;;;;;;;;;;21.50;99.90;;;;;;5029526;28;20416;-72
2023/01/04 10:26:46;;;;;;;;;;;21.50;99.90;;;;;;5037830;28;19909;-74
2023/01/04 10:29:14;;;;;;;;;;;21.40;99.90;;;;;;5041121;28;20565;-72
2023/01/04 10:31:44;;;;;;;;;;;21.40;99.90;;;;;;5036990;28;19913;-74
2023/01/04 10:34:13;;;;;;;;;;;21.70;99.90;;;;;;5033943;28;20287;-74
2023/01/04 10:36:39;;;;;;;;;;;21.70;99.90;;;;;;5036000;28;19909;-75
2023/01/04 10:39:11;;;;;;;;;;;21.50;99.90;;;;;;5039861;28;19974;-72
2023/01/04 10:41:42;;;;;;;;;;;21.70;99.90;;;;;;5039581;28;19909;-76
2023/01/04 10:44:11;;;;;;;;;;;21.50;99.90;;;;;;5034812;28;20383;-74
2023/01/04 10:46:45;;;;;;;;;;;21.60;99.90;;;;;;5041967;28;19909;-76
2023/01/04 10:49:31;;;;;;;;;;;21.40;99.90;;;;;;5042743;28;20422;-76
2023/01/04 10:52:05;;;;;;;;;;;21.50;99.90;;;;;;5040848;28;20406;-73
2023/01/04 10:54:48;;;;;;;;;;;21.40;99.90;;;;;;5036705;28;20097;-76
2023/01/04 10:57:16;;;;;;;;;;;21.50;99.90;;;;;;5033237;28;20074;-74
2023/01/04 10:59:48;;;;;;;;;;;21.50;99.90;;;;;;5041907;28;19916;-73
2023/01/04 11:02:28;;;;;;;;;;;21.70;99.90;;;;;;5035149;28;19913;-72
2023/01/04 11:04:54;;;;;;;;;;;21.70;99.90;;;;;;5044123;28;19917;-73
2023/01/04 11:07:27;;;;;;;;;;;21.80;99.90;;;;;;5043398;28;19913;-75
2023/01/04 11:10:03;;;;;;;;;;;21.60;99.90;;;;;;5029447;28;19913;-74
2023/01/04 11:12:29;;;;;;;;;;;21.80;99.90;;;;;;5039430;28;20481;-73
2023/01/04 11:14:54;;;;;;;;;;;21.60;99.90;;;;;;5038081;28;19924;-74
2023/01/04 11:17:20;;;;;;;;;;;21.60;99.90;;;;;;5033089;28;19913;-74
2023/01/04 11:19:46;;;;;;;;;;;21.60;99.90;;;;;;5040562;28;19909;-72
2023/01/04 11:22:19;;;;;;;;;;;21.80;99.90;;;;;;5040371;28;19913;-75
2023/01/04 11:24:47;;;;;;;;;;;21.60;99.90;;;;;;5040134;28;19909;-73
2023/01/04 11:27:15;;;;;;;;;;;21.80;99.90;;;;;;5043637;28;19908;-74
2023/01/04 11:29:43;;;;;;;;;;;21.80;99.90;;;;;;5047082;28;19913;-73
2023/01/04 11:32:13;;;;;;;;;;;21.70;99.90;;;;;;5038982;28;19908;-71
2023/01/04 11:34:43;;;;;;;;;;;21.80;99.90;;;;;;5035107;28;19909;-75
2023/01/04 11:37:24;;;;;;;;;;;21.70;99.90;;;;;;5044526;28;20042;-73
2023/01/04 11:39:49;;;;;;;;;;;21.70;99.90;;;;;;5042361;28;20390;-75
2023/01/04 11:42:19;;;;;;;;;;;21.50;99.90;;;;;;5031989;28;19964;-72
2023/01/04 11:44:56;;;;;;;;;;;21.50;99.90;;;;;;5037763;28;19915;-73
2023/01/04 11:47:26;;;;;;;;;;;21.40;99.90;;;;;;5029529;28;19959;-73
2023/01/04 11:49:52;;;;;;;;;;;21.40;99.90;;;;;;5041555;28;19913;-75
2023/01/04 11:52:36;;;;;;;;;;;21.20;99.90;;;;;;5037116;28;19923;-75
2023/01/04 11:55:21;;;;;;;;;;;21.00;99.90;;;;;;5045840;28;19951;-75
2023/01/04 11:57:47;;;;;;;;;;;21.00;99.90;;;;;;5030212;28;19932;-74
2023/01/04 12:00:13;;;;;;;;;;;20.90;99.90;;;;;;5038096;28;19909;-73
2023/01/04 12:02:39;;;;;;;;;;;20.90;99.90;;;;;;5045555;28;19916;-73
2023/01/04 12:05:10;;;;;;;;;;;20.70;99.90;;;;;;5028888;28;19917;-74
2023/01/04 12:07:36;;;;;;;;;;;20.50;99.90;;;;;;5041517;28;20043;-73
2023/01/04 12:10:10;;;;;;;;;;;20.50;99.90;;;;;;5045167;28;20022;-74
2023/01/04 12:12:36;;;;;;;;;;;20.30;99.90;;;;;;5032352;28;20040;-75
2023/01/04 12:15:08;;;;;;;;;;;20.10;99.90;;;;;;5038357;28;19991;-75
2023/01/04 12:17:41;;;;;;;;;;;20.10;99.90;;;;;;5042587;28;19913;-74
2023/01/04 12:20:14;;;;;;;;;;;19.80;99.90;;;;;;5040140;28;20003;-73
2023/01/04 12:22:40;;;;;;;;;;;19.80;99.90;;;;;;5040192;28;19909;-74
2023/01/04 12:25:21;;;;;;;;;;;19.50;99.90;;;;;;5037328;28;19913;-73
2023/01/04 12:27:47;;;;;;;;;;;19.40;99.90;;;;;;5046405;28;19917;-74
2023/01/04 12:30:31;;;;;;;;;;;19.20;99.90;;;;;;5041963;28;19935;-76
2023/01/04 12:32:56;;;;;;;;;;;19.10;99.90;;;;;;5038460;28;19916;-76
2023/01/04 12:35:41;;;;;;;;;;;19.00;99.90;;;;;;5046752;28;19909;-75
2023/01/04 12:38:07;;;;;;;;;;;18.80;99.90;;;;;;5039736;28;19920;-76
2023/01/04 12:40:45;;;;;;;;;;;18.70;99.90;;;;;;5045173;28;19912;-74
2023/01/04 12:43:13;;;;;;;;;;;18.50;99.90;;;;;;5039057;28;20496;-74
2023/01/04 12:45:39;;;;;;;;;;;18.40;99.90;;;;;;5039422;28;20502;-75
2023/01/04 12:51:18;;;;;;;;;;;18.20;99.90;;;;;;5036631;28;20555;-75
2023/01/04 12:54:03;;;;;;;;;;;18.10;99.90;;;;;;5045473;28;19919;-74
2023/01/04 12:56:47;;;;;;;;;;;17.90;99.90;;;;;;5041304;28;20374;-75
2023/01/04 12:59:30;;;;;;;;;;;17.90;99.90;;;;;;5042117;28;19913;-75
2023/01/04 13:02:13;;;;;;;;;;;17.80;99.90;;;;;;5048350;28;19919;-73
2023/01/04 13:04:40;;;;;;;;;;;17.80;99.90;;;;;;5043441;28;19924;-73
2023/01/04 13:07:17;;;;;;;;;;;17.70;99.90;;;;;;5044556;28;19940;-77
2023/01/04 13:09:48;;;;;;;;;;;17.60;99.90;;;;;;5044675;28;19919;-77
2023/01/04 13:12:32;;;;;;;;;;;17.40;99.90;;;;;;5044016;28;19924;-75
2023/01/04 13:15:02;;;;;;;;;;;17.40;99.90;;;;;;5043264;28;19916;-74
2023/01/04 13:17:28;;;;;;;;;;;17.30;99.90;;;;;;5046288;28;20433;-73
2023/01/04 13:19:54;;;;;;;;;;;17.20;99.90;;;;;;5045178;28;19913;-74
2023/01/04 13:22:25;;;;;;;;;;;17.20;99.90;;;;;;5040770;28;20497;-72
2023/01/04 13:24:50;;;;;;;;;;;17.00;99.90;;;;;;5045399;28;19936;-75
2023/01/04 13:27:20;;;;;;;;;;;17.00;99.90;;;;;;5041858;28;19909;-74
2023/01/04 13:29:46;;;;;;;;;;;16.90;99.90;;;;;;5044076;28;19923;-75
2023/01/04 13:32:11;;;;;;;;;;;16.80;99.90;;;;;;5046568;28;20391;-75
2023/01/04 13:34:37;;;;;;;;;;;16.80;99.90;;;;;;5040629;28;20004;-75
2023/01/04 13:37:16;;;;;;;;;;;16.70;99.90;;;;;;5035240;28;20004;-74
2023/01/04 13:39:49;;;;;;;;;;;16.70;99.90;;;;;;5041983;28;20438;-74
2023/01/04 13:42:28;;;;;;;;;;;16.60;99.90;;;;;;5047209;28;19913;-76
2023/01/04 13:45:00;;;;;;;;;;;16.60;99.90;;;;;;5049052;28;19909;-73
2023/01/04 13:47:26;;;;;;;;;;;16.60;99.90;;;;;;5053589;28;20008;-74
2023/01/04 13:49:52;;;;;;;;;;;16.50;99.90;;;;;;5042978;28;19939;-75
2023/01/04 13:52:24;;;;;;;;;;;16.40;99.90;;;;;;5040850;28;20518;-71
2023/01/04 13:54:50;;;;;;;;;;;16.30;99.90;;;;;;5053148;28;19909;-73
2023/01/04 13:57:19;;;;;;;;;;;16.20;99.90;;;;;;5045653;28;19956;-75
2023/01/04 13:59:48;;;;;;;;;;;16.20;99.90;;;;;;5041197;28;19909;-75
2023/01/04 14:02:15;;;;;;;;;;;16.10;99.90;;;;;;5044443;28;19913;-75
2023/01/04 14:04:41;;;;;;;;;;;16.00;99.90;;;;;;5042083;28;20574;-75
2023/01/04 14:07:07;;;;;;;;;;;15.90;99.90;;;;;;5035711;28;20312;-74
2023/01/04 14:09:45;;;;;;;;;;;15.80;99.90;;;;;;5045877;28;19923;-75
2023/01/04 14:12:15;;;;;;;;;;;15.70;99.90;;;;;;5040705;28;20538;-75
2023/01/04 14:14:59;;;;;;;;;;;15.60;99.90;;;;;;5039548;28;19909;-75
2023/01/04 14:17:31;;;;;;;;;;;15.50;99.90;;;;;;5048654;28;19939;-74
2023/01/04 14:19:57;;;;;;;;;;;15.40;99.90;;;;;;5047373;28;19912;-76
2023/01/04 14:22:22;;;;;;;;;;;15.30;99.90;;;;;;5034759;28;19975;-74
2023/01/04 14:24:49;;;;;;;;;;;15.30;99.90;;;;;;5042516;28;19925;-73
2023/01/04 14:27:30;;;;;;;;;;;15.20;99.90;;;;;;5044645;28;19944;-74
2023/01/04 14:29:56;;;;;;;;;;;15.10;99.90;;;;;;5041411;28;19963;-75
2023/01/04 14:32:22;;;;;;;;;;;15.00;99.90;;;;;;5044692;28;19912;-75
2023/01/04 14:34:47;;;;;;;;;;;14.90;99.90;;;;;;5041449;28;19916;-75
2023/01/04 14:37:13;;;;;;;;;;;14.80;99.90;;;;;;5038450;28;20554;-76
2023/01/04 14:39:38;;;;;;;;;;;14.70;99.90;;;;;;5042085;28;19944;-74
2023/01/04 14:42:12;;;;;;;;;;;14.70;99.90;;;;;;5034237;28;20015;-75
2023/01/04 14:44:40;;;;;;;;;;;14.70;99.90;;;;;;5037547;28;19909;-74
2023/01/04 14:47:09;;;;;;;;;;;14.60;99.90;;;;;;5045778;28;20430;-76
2023/01/04 14:49:34;;;;;;;;;;;14.60;99.90;;;;;;5037429;28;19919;-75
2023/01/04 14:52:02;;;;;;;;;;;14.60;99.90;;;;;;5033656;28;20362;-73
2023/01/04 14:54:28;;;;;;;;;;;14.60;99.90;;;;;;5040750;28;19916;-73
2023/01/04 14:56:54;;;;;;;;;;;14.50;99.90;;;;;;5045129;28;19924;-75
2023/01/04 14:59:22;;;;;;;;;;;14.50;99.90;;;;;;5041633;28;19913;-74
2023/01/04 15:01:48;;;;;;;;;;;14.40;99.90;;;;;;5051188;28;19916;-74
2023/01/04 15:04:14;;;;;;;;;;;14.30;99.90;;;;;;5048884;28;19927;-73
2023/01/04 15:06:45;;;;;;;;;;;14.30;99.90;;;;;;5039755;28;19913;-75
2023/01/04 15:09:11;;;;;;;;;;;14.20;99.90;;;;;;5049642;28;19913;-77